<?xml version="1.0" encoding="UTF-8" standalone="no" ?>
<gpx xmlns="http://www.topografix.com/GPX/1/1" xmlns:xsi="http://www.w3.org/2001/XMLSchema-instance" xsi:schemaLocation="http://www.topografix.com/GPX/1/1 http://www.topografix.com/GPX/1/1/gpx.xsd" version="1.1" creator="VisuGPX - https://www.visugpx.com">
  <metadata>
    <name>Alos 12.5-210-14153237-</name>
  </metadata>
  <trk>
    <name><![CDATA[14153237-Alos 12.5-210]]></name>
    <trkseg>
      <trkpt lat="44.02408" lon="1.87809">
        <ele>260</ele>
        <time>2022-01-20T17:22:42Z</time>
      </trkpt>
      <trkpt lat="44.0239" lon="1.87788">
        <ele>257</ele>
        <time>2022-01-20T17:23:13Z</time>
      </trkpt>
      <trkpt lat="44.02381" lon="1.87831">
        <ele>258</ele>
        <time>2022-01-20T17:23:56Z</time>
      </trkpt>
      <trkpt lat="44.0238" lon="1.87867">
        <ele>258</ele>
        <time>2022-01-20T17:24:31Z</time>
      </trkpt>
      <trkpt lat="44.02377" lon="1.87895">
        <ele>258</ele>
        <time>2022-01-20T17:24:58Z</time>
      </trkpt>
      <trkpt lat="44.02375" lon="1.8793">
        <ele>259</ele>
        <time>2022-01-20T17:25:32Z</time>
      </trkpt>
      <trkpt lat="44.02359" lon="1.88014">
        <ele>262</ele>
        <time>2022-01-20T17:26:55Z</time>
      </trkpt>
      <trkpt lat="44.02351" lon="1.8806">
        <ele>263</ele>
        <time>2022-01-20T17:27:41Z</time>
      </trkpt>
      <trkpt lat="44.02346" lon="1.88107">
        <ele>265</ele>
        <time>2022-01-20T17:28:26Z</time>
      </trkpt>
      <trkpt lat="44.02337" lon="1.88165">
        <ele>268</ele>
        <time>2022-01-20T17:29:23Z</time>
      </trkpt>
      <trkpt lat="44.0233" lon="1.88218">
        <ele>269</ele>
        <time>2022-01-20T17:30:15Z</time>
      </trkpt>
      <trkpt lat="44.02339" lon="1.88259">
        <ele>270</ele>
        <time>2022-01-20T17:30:56Z</time>
      </trkpt>
      <trkpt lat="44.02376" lon="1.88349">
        <ele>266</ele>
        <time>2022-01-20T17:32:35Z</time>
      </trkpt>
      <trkpt lat="44.02391" lon="1.88396">
        <ele>264</ele>
        <time>2022-01-20T17:33:25Z</time>
      </trkpt>
      <trkpt lat="44.02406" lon="1.88431">
        <ele>263</ele>
        <time>2022-01-20T17:34:04Z</time>
      </trkpt>
      <trkpt lat="44.02424" lon="1.88474">
        <ele>262</ele>
        <time>2022-01-20T17:34:52Z</time>
      </trkpt>
      <trkpt lat="44.02441" lon="1.88506">
        <ele>263</ele>
        <time>2022-01-20T17:35:30Z</time>
      </trkpt>
      <trkpt lat="44.0242" lon="1.88538">
        <ele>264</ele>
        <time>2022-01-20T17:36:11Z</time>
      </trkpt>
      <trkpt lat="44.02398" lon="1.88566">
        <ele>265</ele>
        <time>2022-01-20T17:36:51Z</time>
      </trkpt>
      <trkpt lat="44.02396" lon="1.88602">
        <ele>267</ele>
        <time>2022-01-20T17:37:26Z</time>
      </trkpt>
      <trkpt lat="44.02394" lon="1.88651">
        <ele>270</ele>
        <time>2022-01-20T17:38:13Z</time>
      </trkpt>
      <trkpt lat="44.02386" lon="1.88706">
        <ele>273</ele>
        <time>2022-01-20T17:39:07Z</time>
      </trkpt>
      <trkpt lat="44.02381" lon="1.88763">
        <ele>276</ele>
        <time>2022-01-20T17:40:02Z</time>
      </trkpt>
      <trkpt lat="44.0238" lon="1.8879">
        <ele>277</ele>
        <time>2022-01-20T17:40:28Z</time>
      </trkpt>
      <trkpt lat="44.0238" lon="1.88816">
        <ele>279</ele>
        <time>2022-01-20T17:40:53Z</time>
      </trkpt>
      <trkpt lat="44.02375" lon="1.88877">
        <ele>281</ele>
        <time>2022-01-20T17:41:52Z</time>
      </trkpt>
      <trkpt lat="44.02371" lon="1.8891">
        <ele>281</ele>
        <time>2022-01-20T17:42:24Z</time>
      </trkpt>
      <trkpt lat="44.02375" lon="1.8896">
        <ele>283</ele>
        <time>2022-01-20T17:43:12Z</time>
      </trkpt>
      <trkpt lat="44.02393" lon="1.88912">
        <ele>282</ele>
        <time>2022-01-20T17:44:04Z</time>
      </trkpt>
      <trkpt lat="44.02411" lon="1.88877">
        <ele>282</ele>
        <time>2022-01-20T17:44:45Z</time>
      </trkpt>
      <trkpt lat="44.02434" lon="1.88839">
        <ele>281</ele>
        <time>2022-01-20T17:45:33Z</time>
      </trkpt>
      <trkpt lat="44.0249" lon="1.88753">
        <ele>279</ele>
        <time>2022-01-20T17:47:24Z</time>
      </trkpt>
      <trkpt lat="44.02545" lon="1.88671">
        <ele>276</ele>
        <time>2022-01-20T17:49:12Z</time>
      </trkpt>
      <trkpt lat="44.02576" lon="1.88665">
        <ele>274</ele>
        <time>2022-01-20T17:49:54Z</time>
      </trkpt>
      <trkpt lat="44.02602" lon="1.88626">
        <ele>273</ele>
        <time>2022-01-20T17:50:45Z</time>
      </trkpt>
      <trkpt lat="44.02614" lon="1.88586">
        <ele>273</ele>
        <time>2022-01-20T17:51:26Z</time>
      </trkpt>
      <trkpt lat="44.02625" lon="1.88539">
        <ele>272</ele>
        <time>2022-01-20T17:52:14Z</time>
      </trkpt>
      <trkpt lat="44.02631" lon="1.88488">
        <ele>271</ele>
        <time>2022-01-20T17:53:03Z</time>
      </trkpt>
      <trkpt lat="44.02641" lon="1.88456">
        <ele>269</ele>
        <time>2022-01-20T17:53:37Z</time>
      </trkpt>
      <trkpt lat="44.02652" lon="1.88421">
        <ele>267</ele>
        <time>2022-01-20T17:54:13Z</time>
      </trkpt>
      <trkpt lat="44.02654" lon="1.88396">
        <ele>266</ele>
        <time>2022-01-20T17:54:37Z</time>
      </trkpt>
      <trkpt lat="44.02659" lon="1.88371">
        <ele>265</ele>
        <time>2022-01-20T17:55:02Z</time>
      </trkpt>
      <trkpt lat="44.02663" lon="1.8834">
        <ele>264</ele>
        <time>2022-01-20T17:55:33Z</time>
      </trkpt>
      <trkpt lat="44.0266" lon="1.88258">
        <ele>260</ele>
        <time>2022-01-20T17:56:51Z</time>
      </trkpt>
      <trkpt lat="44.02659" lon="1.8823">
        <ele>258</ele>
        <time>2022-01-20T17:57:18Z</time>
      </trkpt>
      <trkpt lat="44.02653" lon="1.88198">
        <ele>256</ele>
        <time>2022-01-20T17:57:50Z</time>
      </trkpt>
      <trkpt lat="44.02655" lon="1.88175">
        <ele>255</ele>
        <time>2022-01-20T17:58:12Z</time>
      </trkpt>
      <trkpt lat="44.02664" lon="1.88149">
        <ele>253</ele>
        <time>2022-01-20T17:58:40Z</time>
      </trkpt>
      <trkpt lat="44.02674" lon="1.88125">
        <ele>251</ele>
        <time>2022-01-20T17:59:07Z</time>
      </trkpt>
      <trkpt lat="44.02689" lon="1.88099">
        <ele>248</ele>
        <time>2022-01-20T17:59:39Z</time>
      </trkpt>
      <trkpt lat="44.02713" lon="1.88076">
        <ele>246</ele>
        <time>2022-01-20T18:00:17Z</time>
      </trkpt>
      <trkpt lat="44.02732" lon="1.88058">
        <ele>245</ele>
        <time>2022-01-20T18:00:48Z</time>
      </trkpt>
      <trkpt lat="44.02749" lon="1.88048">
        <ele>244</ele>
        <time>2022-01-20T18:01:13Z</time>
      </trkpt>
      <trkpt lat="44.02766" lon="1.88035">
        <ele>242</ele>
        <time>2022-01-20T18:01:39Z</time>
      </trkpt>
      <trkpt lat="44.02774" lon="1.88014">
        <ele>241</ele>
        <time>2022-01-20T18:02:01Z</time>
      </trkpt>
      <trkpt lat="44.02775" lon="1.88029">
        <ele>241</ele>
        <time>2022-01-20T18:02:16Z</time>
      </trkpt>
      <trkpt lat="44.02768" lon="1.88098">
        <ele>246</ele>
        <time>2022-01-20T18:03:23Z</time>
      </trkpt>
      <trkpt lat="44.02788" lon="1.88116">
        <ele>246</ele>
        <time>2022-01-20T18:03:55Z</time>
      </trkpt>
      <trkpt lat="44.02827" lon="1.88147">
        <ele>245</ele>
        <time>2022-01-20T18:04:54Z</time>
      </trkpt>
      <trkpt lat="44.0285" lon="1.88193">
        <ele>248</ele>
        <time>2022-01-20T18:05:48Z</time>
      </trkpt>
      <trkpt lat="44.02855" lon="1.88239">
        <ele>251</ele>
        <time>2022-01-20T18:06:33Z</time>
      </trkpt>
      <trkpt lat="44.02875" lon="1.88284">
        <ele>251</ele>
        <time>2022-01-20T18:07:24Z</time>
      </trkpt>
      <trkpt lat="44.02891" lon="1.88312">
        <ele>250</ele>
        <time>2022-01-20T18:07:58Z</time>
      </trkpt>
      <trkpt lat="44.02916" lon="1.88357">
        <ele>248</ele>
        <time>2022-01-20T18:08:52Z</time>
      </trkpt>
      <trkpt lat="44.02926" lon="1.88404">
        <ele>250</ele>
        <time>2022-01-20T18:09:40Z</time>
      </trkpt>
      <trkpt lat="44.02931" lon="1.88439">
        <ele>250</ele>
        <time>2022-01-20T18:10:14Z</time>
      </trkpt>
      <trkpt lat="44.02933" lon="1.88475">
        <ele>251</ele>
        <time>2022-01-20T18:10:48Z</time>
      </trkpt>
      <trkpt lat="44.02951" lon="1.88508">
        <ele>251</ele>
        <time>2022-01-20T18:11:28Z</time>
      </trkpt>
      <trkpt lat="44.03018" lon="1.88502">
        <ele>252</ele>
        <time>2022-01-20T18:12:58Z</time>
      </trkpt>
      <trkpt lat="44.03033" lon="1.88516">
        <ele>253</ele>
        <time>2022-01-20T18:13:22Z</time>
      </trkpt>
      <trkpt lat="44.03062" lon="1.88533">
        <ele>255</ele>
        <time>2022-01-20T18:14:04Z</time>
      </trkpt>
      <trkpt lat="44.03102" lon="1.88522">
        <ele>260</ele>
        <time>2022-01-20T18:14:58Z</time>
      </trkpt>
      <trkpt lat="44.03151" lon="1.8851">
        <ele>267</ele>
        <time>2022-01-20T18:16:05Z</time>
      </trkpt>
      <trkpt lat="44.03188" lon="1.88501">
        <ele>271</ele>
        <time>2022-01-20T18:16:55Z</time>
      </trkpt>
      <trkpt lat="44.03233" lon="1.88497">
        <ele>275</ele>
        <time>2022-01-20T18:17:55Z</time>
      </trkpt>
      <trkpt lat="44.03276" lon="1.88506">
        <ele>278</ele>
        <time>2022-01-20T18:18:53Z</time>
      </trkpt>
      <trkpt lat="44.03319" lon="1.88528">
        <ele>279</ele>
        <time>2022-01-20T18:19:54Z</time>
      </trkpt>
      <trkpt lat="44.03354" lon="1.88538">
        <ele>281</ele>
        <time>2022-01-20T18:20:42Z</time>
      </trkpt>
      <trkpt lat="44.03402" lon="1.88566">
        <ele>285</ele>
        <time>2022-01-20T18:21:51Z</time>
      </trkpt>
      <trkpt lat="44.03548" lon="1.88691">
        <ele>289</ele>
        <time>2022-01-20T18:25:40Z</time>
      </trkpt>
      <trkpt lat="44.03574" lon="1.88707">
        <ele>289</ele>
        <time>2022-01-20T18:26:18Z</time>
      </trkpt>
      <trkpt lat="44.03609" lon="1.88725">
        <ele>289</ele>
        <time>2022-01-20T18:27:08Z</time>
      </trkpt>
      <trkpt lat="44.03635" lon="1.88736">
        <ele>289</ele>
        <time>2022-01-20T18:27:44Z</time>
      </trkpt>
      <trkpt lat="44.03667" lon="1.8874">
        <ele>289</ele>
        <time>2022-01-20T18:28:27Z</time>
      </trkpt>
      <trkpt lat="44.03697" lon="1.8874">
        <ele>291</ele>
        <time>2022-01-20T18:29:07Z</time>
      </trkpt>
      <trkpt lat="44.03722" lon="1.88755">
        <ele>291</ele>
        <time>2022-01-20T18:29:43Z</time>
      </trkpt>
      <trkpt lat="44.03749" lon="1.88791">
        <ele>291</ele>
        <time>2022-01-20T18:30:33Z</time>
      </trkpt>
      <trkpt lat="44.03775" lon="1.88808">
        <ele>292</ele>
        <time>2022-01-20T18:31:12Z</time>
      </trkpt>
      <trkpt lat="44.03793" lon="1.88807">
        <ele>292</ele>
        <time>2022-01-20T18:31:36Z</time>
      </trkpt>
      <trkpt lat="44.03797" lon="1.88774">
        <ele>293</ele>
        <time>2022-01-20T18:32:08Z</time>
      </trkpt>
      <trkpt lat="44.038" lon="1.8874">
        <ele>294</ele>
        <time>2022-01-20T18:32:41Z</time>
      </trkpt>
      <trkpt lat="44.03808" lon="1.88713">
        <ele>293</ele>
        <time>2022-01-20T18:33:09Z</time>
      </trkpt>
      <trkpt lat="44.03825" lon="1.88691">
        <ele>293</ele>
        <time>2022-01-20T18:33:40Z</time>
      </trkpt>
      <trkpt lat="44.03842" lon="1.88664">
        <ele>293</ele>
        <time>2022-01-20T18:34:14Z</time>
      </trkpt>
      <trkpt lat="44.03848" lon="1.88637">
        <ele>291</ele>
        <time>2022-01-20T18:34:41Z</time>
      </trkpt>
      <trkpt lat="44.03858" lon="1.886">
        <ele>289</ele>
        <time>2022-01-20T18:35:19Z</time>
      </trkpt>
      <trkpt lat="44.03868" lon="1.88545">
        <ele>288</ele>
        <time>2022-01-20T18:36:13Z</time>
      </trkpt>
      <trkpt lat="44.03873" lon="1.88516">
        <ele>287</ele>
        <time>2022-01-20T18:36:42Z</time>
      </trkpt>
      <trkpt lat="44.03873" lon="1.88485">
        <ele>287</ele>
        <time>2022-01-20T18:37:12Z</time>
      </trkpt>
      <trkpt lat="44.03877" lon="1.88448">
        <ele>286</ele>
        <time>2022-01-20T18:37:48Z</time>
      </trkpt>
      <trkpt lat="44.03881" lon="1.8842">
        <ele>286</ele>
        <time>2022-01-20T18:38:15Z</time>
      </trkpt>
      <trkpt lat="44.0388" lon="1.88394">
        <ele>285</ele>
        <time>2022-01-20T18:38:40Z</time>
      </trkpt>
      <trkpt lat="44.03881" lon="1.88359">
        <ele>285</ele>
        <time>2022-01-20T18:39:14Z</time>
      </trkpt>
      <trkpt lat="44.03884" lon="1.88318">
        <ele>285</ele>
        <time>2022-01-20T18:39:53Z</time>
      </trkpt>
      <trkpt lat="44.03895" lon="1.88306">
        <ele>285</ele>
        <time>2022-01-20T18:40:12Z</time>
      </trkpt>
      <trkpt lat="44.03893" lon="1.88237">
        <ele>281</ele>
        <time>2022-01-20T18:41:18Z</time>
      </trkpt>
      <trkpt lat="44.03922" lon="1.88209">
        <ele>281</ele>
        <time>2022-01-20T18:42:05Z</time>
      </trkpt>
      <trkpt lat="44.03955" lon="1.88183">
        <ele>280</ele>
        <time>2022-01-20T18:42:56Z</time>
      </trkpt>
      <trkpt lat="44.03971" lon="1.88189">
        <ele>281</ele>
        <time>2022-01-20T18:43:18Z</time>
      </trkpt>
      <trkpt lat="44.03983" lon="1.88212">
        <ele>281</ele>
        <time>2022-01-20T18:43:45Z</time>
      </trkpt>
      <trkpt lat="44.04013" lon="1.88252">
        <ele>282</ele>
        <time>2022-01-20T18:44:41Z</time>
      </trkpt>
      <trkpt lat="44.04033" lon="1.8829">
        <ele>282</ele>
        <time>2022-01-20T18:45:26Z</time>
      </trkpt>
      <trkpt lat="44.04047" lon="1.88321">
        <ele>281</ele>
        <time>2022-01-20T18:46:01Z</time>
      </trkpt>
      <trkpt lat="44.04063" lon="1.88334">
        <ele>282</ele>
        <time>2022-01-20T18:46:26Z</time>
      </trkpt>
      <trkpt lat="44.04097" lon="1.88335">
        <ele>282</ele>
        <time>2022-01-20T18:47:11Z</time>
      </trkpt>
      <trkpt lat="44.04124" lon="1.88432">
        <ele>283</ele>
        <time>2022-01-20T18:48:51Z</time>
      </trkpt>
      <trkpt lat="44.04174" lon="1.88448">
        <ele>285</ele>
        <time>2022-01-20T18:49:59Z</time>
      </trkpt>
      <trkpt lat="44.04294" lon="1.88519">
        <ele>292</ele>
        <time>2022-01-20T18:52:53Z</time>
      </trkpt>
      <trkpt lat="44.04336" lon="1.88558">
        <ele>295</ele>
        <time>2022-01-20T18:54:01Z</time>
      </trkpt>
      <trkpt lat="44.04351" lon="1.88556">
        <ele>295</ele>
        <time>2022-01-20T18:54:21Z</time>
      </trkpt>
      <trkpt lat="44.04361" lon="1.88539">
        <ele>294</ele>
        <time>2022-01-20T18:54:42Z</time>
      </trkpt>
      <trkpt lat="44.04374" lon="1.88529">
        <ele>294</ele>
        <time>2022-01-20T18:55:02Z</time>
      </trkpt>
      <trkpt lat="44.04388" lon="1.88528">
        <ele>294</ele>
        <time>2022-01-20T18:55:20Z</time>
      </trkpt>
      <trkpt lat="44.04418" lon="1.88474">
        <ele>294</ele>
        <time>2022-01-20T18:56:26Z</time>
      </trkpt>
      <trkpt lat="44.04439" lon="1.88438">
        <ele>294</ele>
        <time>2022-01-20T18:57:10Z</time>
      </trkpt>
      <trkpt lat="44.04455" lon="1.88457">
        <ele>294</ele>
        <time>2022-01-20T18:57:38Z</time>
      </trkpt>
      <trkpt lat="44.04512" lon="1.88459">
        <ele>293</ele>
        <time>2022-01-20T18:58:54Z</time>
      </trkpt>
      <trkpt lat="44.04556" lon="1.88472">
        <ele>292</ele>
        <time>2022-01-20T18:59:55Z</time>
      </trkpt>
      <trkpt lat="44.0459" lon="1.8849">
        <ele>291</ele>
        <time>2022-01-20T19:00:43Z</time>
      </trkpt>
      <trkpt lat="44.0462" lon="1.88514">
        <ele>289</ele>
        <time>2022-01-20T19:01:29Z</time>
      </trkpt>
      <trkpt lat="44.04688" lon="1.88577">
        <ele>287</ele>
        <time>2022-01-20T19:03:18Z</time>
      </trkpt>
      <trkpt lat="44.04733" lon="1.88608">
        <ele>285</ele>
        <time>2022-01-20T19:04:25Z</time>
      </trkpt>
      <trkpt lat="44.04754" lon="1.88615">
        <ele>284</ele>
        <time>2022-01-20T19:04:54Z</time>
      </trkpt>
      <trkpt lat="44.04841" lon="1.88623">
        <ele>279</ele>
        <time>2022-01-20T19:06:50Z</time>
      </trkpt>
      <trkpt lat="44.04886" lon="1.88507">
        <ele>281</ele>
        <time>2022-01-20T19:08:57Z</time>
      </trkpt>
      <trkpt lat="44.04891" lon="1.88444">
        <ele>284</ele>
        <time>2022-01-20T19:09:58Z</time>
      </trkpt>
      <trkpt lat="44.04895" lon="1.88411">
        <ele>285</ele>
        <time>2022-01-20T19:10:30Z</time>
      </trkpt>
      <trkpt lat="44.04911" lon="1.88359">
        <ele>284</ele>
        <time>2022-01-20T19:11:24Z</time>
      </trkpt>
      <trkpt lat="44.04923" lon="1.88353">
        <ele>284</ele>
        <time>2022-01-20T19:11:41Z</time>
      </trkpt>
      <trkpt lat="44.04938" lon="1.88356">
        <ele>283</ele>
        <time>2022-01-20T19:12:01Z</time>
      </trkpt>
      <trkpt lat="44.04977" lon="1.88347">
        <ele>281</ele>
        <time>2022-01-20T19:12:54Z</time>
      </trkpt>
      <trkpt lat="44.0503" lon="1.88339">
        <ele>276</ele>
        <time>2022-01-20T19:14:05Z</time>
      </trkpt>
      <trkpt lat="44.05048" lon="1.88353">
        <ele>275</ele>
        <time>2022-01-20T19:14:33Z</time>
      </trkpt>
      <trkpt lat="44.05081" lon="1.88359">
        <ele>272</ele>
        <time>2022-01-20T19:15:17Z</time>
      </trkpt>
      <trkpt lat="44.05091" lon="1.88313">
        <ele>271</ele>
        <time>2022-01-20T19:16:03Z</time>
      </trkpt>
      <trkpt lat="44.05101" lon="1.883">
        <ele>271</ele>
        <time>2022-01-20T19:16:21Z</time>
      </trkpt>
      <trkpt lat="44.05095" lon="1.88251">
        <ele>271</ele>
        <time>2022-01-20T19:17:09Z</time>
      </trkpt>
      <trkpt lat="44.05097" lon="1.88213">
        <ele>277</ele>
        <time>2022-01-20T19:17:46Z</time>
      </trkpt>
      <trkpt lat="44.05105" lon="1.88168">
        <ele>285</ele>
        <time>2022-01-20T19:18:30Z</time>
      </trkpt>
      <trkpt lat="44.05093" lon="1.882">
        <ele>279</ele>
        <time>2022-01-20T19:19:05Z</time>
      </trkpt>
      <trkpt lat="44.05067" lon="1.88169">
        <ele>284</ele>
        <time>2022-01-20T19:19:50Z</time>
      </trkpt>
      <trkpt lat="44.05082" lon="1.88133">
        <ele>286</ele>
        <time>2022-01-20T19:20:30Z</time>
      </trkpt>
      <trkpt lat="44.05112" lon="1.88141">
        <ele>287</ele>
        <time>2022-01-20T19:21:11Z</time>
      </trkpt>
      <trkpt lat="44.05136" lon="1.88154">
        <ele>287</ele>
        <time>2022-01-20T19:21:45Z</time>
      </trkpt>
      <trkpt lat="44.05198" lon="1.88146">
        <ele>288</ele>
        <time>2022-01-20T19:23:09Z</time>
      </trkpt>
      <trkpt lat="44.0521" lon="1.8813">
        <ele>289</ele>
        <time>2022-01-20T19:23:31Z</time>
      </trkpt>
      <trkpt lat="44.05225" lon="1.8812">
        <ele>289</ele>
        <time>2022-01-20T19:23:53Z</time>
      </trkpt>
      <trkpt lat="44.05248" lon="1.88094">
        <ele>290</ele>
        <time>2022-01-20T19:24:32Z</time>
      </trkpt>
      <trkpt lat="44.05235" lon="1.88072">
        <ele>290</ele>
        <time>2022-01-20T19:25:00Z</time>
      </trkpt>
      <trkpt lat="44.05213" lon="1.88032">
        <ele>289</ele>
        <time>2022-01-20T19:25:48Z</time>
      </trkpt>
      <trkpt lat="44.05179" lon="1.87978">
        <ele>288</ele>
        <time>2022-01-20T19:26:57Z</time>
      </trkpt>
      <trkpt lat="44.05175" lon="1.87944">
        <ele>289</ele>
        <time>2022-01-20T19:27:30Z</time>
      </trkpt>
      <trkpt lat="44.05178" lon="1.87866">
        <ele>292</ele>
        <time>2022-01-20T19:28:45Z</time>
      </trkpt>
      <trkpt lat="44.05158" lon="1.87759">
        <ele>296</ele>
        <time>2022-01-20T19:30:31Z</time>
      </trkpt>
      <trkpt lat="44.05146" lon="1.87727">
        <ele>297</ele>
        <time>2022-01-20T19:31:06Z</time>
      </trkpt>
      <trkpt lat="44.05113" lon="1.87677">
        <ele>297</ele>
        <time>2022-01-20T19:32:11Z</time>
      </trkpt>
      <trkpt lat="44.05087" lon="1.87639">
        <ele>296</ele>
        <time>2022-01-20T19:33:01Z</time>
      </trkpt>
      <trkpt lat="44.05112" lon="1.87603">
        <ele>298</ele>
        <time>2022-01-20T19:33:49Z</time>
      </trkpt>
      <trkpt lat="44.05066" lon="1.87582">
        <ele>296</ele>
        <time>2022-01-20T19:34:54Z</time>
      </trkpt>
      <trkpt lat="44.05023" lon="1.87558">
        <ele>292</ele>
        <time>2022-01-20T19:35:55Z</time>
      </trkpt>
      <trkpt lat="44.04948" lon="1.87485">
        <ele>286</ele>
        <time>2022-01-20T19:37:58Z</time>
      </trkpt>
      <trkpt lat="44.04914" lon="1.87443">
        <ele>285</ele>
        <time>2022-01-20T19:38:58Z</time>
      </trkpt>
      <trkpt lat="44.04896" lon="1.87394">
        <ele>285</ele>
        <time>2022-01-20T19:39:51Z</time>
      </trkpt>
      <trkpt lat="44.04846" lon="1.87388">
        <ele>284</ele>
        <time>2022-01-20T19:40:58Z</time>
      </trkpt>
      <trkpt lat="44.04799" lon="1.8737">
        <ele>285</ele>
        <time>2022-01-20T19:42:03Z</time>
      </trkpt>
      <trkpt lat="44.04701" lon="1.87322">
        <ele>288</ele>
        <time>2022-01-20T19:44:22Z</time>
      </trkpt>
      <trkpt lat="44.04719" lon="1.8723">
        <ele>288</ele>
        <time>2022-01-20T19:45:53Z</time>
      </trkpt>
      <trkpt lat="44.04741" lon="1.87123">
        <ele>289</ele>
        <time>2022-01-20T19:47:40Z</time>
      </trkpt>
      <trkpt lat="44.0475" lon="1.87018">
        <ele>288</ele>
        <time>2022-01-20T19:49:21Z</time>
      </trkpt>
      <trkpt lat="44.04768" lon="1.86966">
        <ele>286</ele>
        <time>2022-01-20T19:50:17Z</time>
      </trkpt>
      <trkpt lat="44.04791" lon="1.86875">
        <ele>280</ele>
        <time>2022-01-20T19:51:49Z</time>
      </trkpt>
      <trkpt lat="44.04793" lon="1.86801">
        <ele>274</ele>
        <time>2022-01-20T19:53:00Z</time>
      </trkpt>
      <trkpt lat="44.04784" lon="1.86757">
        <ele>271</ele>
        <time>2022-01-20T19:53:44Z</time>
      </trkpt>
      <trkpt lat="44.04764" lon="1.86716">
        <ele>268</ele>
        <time>2022-01-20T19:54:32Z</time>
      </trkpt>
      <trkpt lat="44.0475" lon="1.86659">
        <ele>262</ele>
        <time>2022-01-20T19:55:29Z</time>
      </trkpt>
      <trkpt lat="44.04725" lon="1.8668">
        <ele>264</ele>
        <time>2022-01-20T19:56:08Z</time>
      </trkpt>
      <trkpt lat="44.04704" lon="1.86701">
        <ele>266</ele>
        <time>2022-01-20T19:56:43Z</time>
      </trkpt>
      <trkpt lat="44.04689" lon="1.86708">
        <ele>266</ele>
        <time>2022-01-20T19:57:04Z</time>
      </trkpt>
      <trkpt lat="44.04678" lon="1.86697">
        <ele>265</ele>
        <time>2022-01-20T19:57:22Z</time>
      </trkpt>
      <trkpt lat="44.04655" lon="1.86635">
        <ele>260</ele>
        <time>2022-01-20T19:58:29Z</time>
      </trkpt>
      <trkpt lat="44.04632" lon="1.86607">
        <ele>259</ele>
        <time>2022-01-20T19:59:10Z</time>
      </trkpt>
      <trkpt lat="44.04563" lon="1.86569">
        <ele>260</ele>
        <time>2022-01-20T20:00:49Z</time>
      </trkpt>
      <trkpt lat="44.04521" lon="1.86556">
        <ele>262</ele>
        <time>2022-01-20T20:01:46Z</time>
      </trkpt>
      <trkpt lat="44.04497" lon="1.86489">
        <ele>254</ele>
        <time>2022-01-20T20:02:58Z</time>
      </trkpt>
      <trkpt lat="44.04484" lon="1.86464">
        <ele>251</ele>
        <time>2022-01-20T20:03:28Z</time>
      </trkpt>
      <trkpt lat="44.04412" lon="1.86417">
        <ele>247</ele>
        <time>2022-01-20T20:05:14Z</time>
      </trkpt>
      <trkpt lat="44.04428" lon="1.86357">
        <ele>241</ele>
        <time>2022-01-20T20:06:15Z</time>
      </trkpt>
      <trkpt lat="44.04428" lon="1.86321">
        <ele>239</ele>
        <time>2022-01-20T20:06:50Z</time>
      </trkpt>
      <trkpt lat="44.0444" lon="1.86297">
        <ele>239</ele>
        <time>2022-01-20T20:07:18Z</time>
      </trkpt>
      <trkpt lat="44.0445" lon="1.86264">
        <ele>240</ele>
        <time>2022-01-20T20:07:52Z</time>
      </trkpt>
      <trkpt lat="44.0438" lon="1.86235">
        <ele>241</ele>
        <time>2022-01-20T20:09:30Z</time>
      </trkpt>
      <trkpt lat="44.04314" lon="1.86222">
        <ele>241</ele>
        <time>2022-01-20T20:10:59Z</time>
      </trkpt>
      <trkpt lat="44.04246" lon="1.8621">
        <ele>241</ele>
        <time>2022-01-20T20:12:30Z</time>
      </trkpt>
      <trkpt lat="44.04197" lon="1.86207">
        <ele>239</ele>
        <time>2022-01-20T20:13:35Z</time>
      </trkpt>
      <trkpt lat="44.04142" lon="1.86196">
        <ele>239</ele>
        <time>2022-01-20T20:14:50Z</time>
      </trkpt>
      <trkpt lat="44.04107" lon="1.86191">
        <ele>238</ele>
        <time>2022-01-20T20:15:37Z</time>
      </trkpt>
      <trkpt lat="44.04049" lon="1.8618">
        <ele>236</ele>
        <time>2022-01-20T20:16:55Z</time>
      </trkpt>
      <trkpt lat="44.04027" lon="1.86171">
        <ele>235</ele>
        <time>2022-01-20T20:17:25Z</time>
      </trkpt>
      <trkpt lat="44.03978" lon="1.8614">
        <ele>235</ele>
        <time>2022-01-20T20:18:37Z</time>
      </trkpt>
      <trkpt lat="44.03906" lon="1.86101">
        <ele>234</ele>
        <time>2022-01-20T20:20:20Z</time>
      </trkpt>
      <trkpt lat="44.03876" lon="1.86066">
        <ele>234</ele>
        <time>2022-01-20T20:21:12Z</time>
      </trkpt>
      <trkpt lat="44.03812" lon="1.86024">
        <ele>231</ele>
        <time>2022-01-20T20:22:47Z</time>
      </trkpt>
      <trkpt lat="44.03765" lon="1.85995">
        <ele>230</ele>
        <time>2022-01-20T20:23:55Z</time>
      </trkpt>
      <trkpt lat="44.03757" lon="1.86009">
        <ele>230</ele>
        <time>2022-01-20T20:24:13Z</time>
      </trkpt>
      <trkpt lat="44.0377" lon="1.86038">
        <ele>230</ele>
        <time>2022-01-20T20:24:45Z</time>
      </trkpt>
      <trkpt lat="44.03806" lon="1.86108">
        <ele>232</ele>
        <time>2022-01-20T20:26:08Z</time>
      </trkpt>
      <trkpt lat="44.03819" lon="1.86169">
        <ele>234</ele>
        <time>2022-01-20T20:27:09Z</time>
      </trkpt>
      <trkpt lat="44.03798" lon="1.86153">
        <ele>233</ele>
        <time>2022-01-20T20:27:41Z</time>
      </trkpt>
      <trkpt lat="44.03778" lon="1.86131">
        <ele>232</ele>
        <time>2022-01-20T20:28:15Z</time>
      </trkpt>
      <trkpt lat="44.03716" lon="1.86122">
        <ele>233</ele>
        <time>2022-01-20T20:29:38Z</time>
      </trkpt>
      <trkpt lat="44.03685" lon="1.86106">
        <ele>233</ele>
        <time>2022-01-20T20:30:22Z</time>
      </trkpt>
      <trkpt lat="44.03663" lon="1.86104">
        <ele>234</ele>
        <time>2022-01-20T20:30:52Z</time>
      </trkpt>
      <trkpt lat="44.03645" lon="1.861">
        <ele>233</ele>
        <time>2022-01-20T20:31:16Z</time>
      </trkpt>
      <trkpt lat="44.03609" lon="1.86096">
        <ele>233</ele>
        <time>2022-01-20T20:32:04Z</time>
      </trkpt>
      <trkpt lat="44.03582" lon="1.86091">
        <ele>232</ele>
        <time>2022-01-20T20:32:41Z</time>
      </trkpt>
      <trkpt lat="44.03551" lon="1.86088">
        <ele>232</ele>
        <time>2022-01-20T20:33:22Z</time>
      </trkpt>
      <trkpt lat="44.03533" lon="1.86082">
        <ele>232</ele>
        <time>2022-01-20T20:33:47Z</time>
      </trkpt>
      <trkpt lat="44.03501" lon="1.86068">
        <ele>232</ele>
        <time>2022-01-20T20:34:32Z</time>
      </trkpt>
      <trkpt lat="44.03477" lon="1.86046">
        <ele>231</ele>
        <time>2022-01-20T20:35:10Z</time>
      </trkpt>
      <trkpt lat="44.03469" lon="1.86027">
        <ele>230</ele>
        <time>2022-01-20T20:35:31Z</time>
      </trkpt>
      <trkpt lat="44.03455" lon="1.86015">
        <ele>229</ele>
        <time>2022-01-20T20:35:53Z</time>
      </trkpt>
      <trkpt lat="44.03441" lon="1.8604">
        <ele>231</ele>
        <time>2022-01-20T20:36:23Z</time>
      </trkpt>
      <trkpt lat="44.03402" lon="1.86079">
        <ele>235</ele>
        <time>2022-01-20T20:37:27Z</time>
      </trkpt>
      <trkpt lat="44.03377" lon="1.8619">
        <ele>256</ele>
        <time>2022-01-20T20:39:19Z</time>
      </trkpt>
      <trkpt lat="44.03342" lon="1.86266">
        <ele>271</ele>
        <time>2022-01-20T20:40:46Z</time>
      </trkpt>
      <trkpt lat="44.03327" lon="1.86297">
        <ele>275</ele>
        <time>2022-01-20T20:41:22Z</time>
      </trkpt>
      <trkpt lat="44.03304" lon="1.8637">
        <ele>282</ele>
        <time>2022-01-20T20:42:38Z</time>
      </trkpt>
      <trkpt lat="44.03286" lon="1.8644">
        <ele>284</ele>
        <time>2022-01-20T20:43:49Z</time>
      </trkpt>
      <trkpt lat="44.03241" lon="1.86514">
        <ele>283</ele>
        <time>2022-01-20T20:45:22Z</time>
      </trkpt>
      <trkpt lat="44.0319" lon="1.86588">
        <ele>285</ele>
        <time>2022-01-20T20:47:01Z</time>
      </trkpt>
      <trkpt lat="44.03143" lon="1.86661">
        <ele>288</ele>
        <time>2022-01-20T20:48:35Z</time>
      </trkpt>
      <trkpt lat="44.03127" lon="1.86682">
        <ele>288</ele>
        <time>2022-01-20T20:49:04Z</time>
      </trkpt>
      <trkpt lat="44.03149" lon="1.86725">
        <ele>286</ele>
        <time>2022-01-20T20:49:55Z</time>
      </trkpt>
      <trkpt lat="44.03169" lon="1.86749">
        <ele>285</ele>
        <time>2022-01-20T20:50:30Z</time>
      </trkpt>
      <trkpt lat="44.03187" lon="1.8677">
        <ele>286</ele>
        <time>2022-01-20T20:51:01Z</time>
      </trkpt>
      <trkpt lat="44.0323" lon="1.86819">
        <ele>287</ele>
        <time>2022-01-20T20:52:15Z</time>
      </trkpt>
      <trkpt lat="44.03247" lon="1.86847">
        <ele>287</ele>
        <time>2022-01-20T20:52:51Z</time>
      </trkpt>
      <trkpt lat="44.03292" lon="1.86887">
        <ele>286</ele>
        <time>2022-01-20T20:54:02Z</time>
      </trkpt>
      <trkpt lat="44.03325" lon="1.86916">
        <ele>287</ele>
        <time>2022-01-20T20:54:54Z</time>
      </trkpt>
      <trkpt lat="44.03375" lon="1.86989">
        <ele>286</ele>
        <time>2022-01-20T20:56:31Z</time>
      </trkpt>
      <trkpt lat="44.03383" lon="1.87011">
        <ele>285</ele>
        <time>2022-01-20T20:56:54Z</time>
      </trkpt>
      <trkpt lat="44.03365" lon="1.87013">
        <ele>286</ele>
        <time>2022-01-20T20:57:18Z</time>
      </trkpt>
      <trkpt lat="44.03342" lon="1.8701">
        <ele>287</ele>
        <time>2022-01-20T20:57:49Z</time>
      </trkpt>
      <trkpt lat="44.03322" lon="1.87006">
        <ele>287</ele>
        <time>2022-01-20T20:58:16Z</time>
      </trkpt>
      <trkpt lat="44.0329" lon="1.86989">
        <ele>287</ele>
        <time>2022-01-20T20:59:02Z</time>
      </trkpt>
      <trkpt lat="44.03269" lon="1.86984">
        <ele>287</ele>
        <time>2022-01-20T20:59:30Z</time>
      </trkpt>
      <trkpt lat="44.03243" lon="1.86981">
        <ele>286</ele>
        <time>2022-01-20T21:00:05Z</time>
      </trkpt>
      <trkpt lat="44.03216" lon="1.86987">
        <ele>285</ele>
        <time>2022-01-20T21:00:42Z</time>
      </trkpt>
      <trkpt lat="44.03195" lon="1.87009">
        <ele>283</ele>
        <time>2022-01-20T21:01:17Z</time>
      </trkpt>
      <trkpt lat="44.03177" lon="1.8705">
        <ele>281</ele>
        <time>2022-01-20T21:02:03Z</time>
      </trkpt>
      <trkpt lat="44.03163" lon="1.87061">
        <ele>280</ele>
        <time>2022-01-20T21:02:24Z</time>
      </trkpt>
      <trkpt lat="44.0315" lon="1.87063">
        <ele>280</ele>
        <time>2022-01-20T21:02:42Z</time>
      </trkpt>
      <trkpt lat="44.03103" lon="1.87036">
        <ele>279</ele>
        <time>2022-01-20T21:03:50Z</time>
      </trkpt>
      <trkpt lat="44.03043" lon="1.87045">
        <ele>280</ele>
        <time>2022-01-20T21:05:10Z</time>
      </trkpt>
      <trkpt lat="44.03005" lon="1.87046">
        <ele>281</ele>
        <time>2022-01-20T21:06:01Z</time>
      </trkpt>
      <trkpt lat="44.02971" lon="1.8704">
        <ele>281</ele>
        <time>2022-01-20T21:06:47Z</time>
      </trkpt>
      <trkpt lat="44.02941" lon="1.87038">
        <ele>281</ele>
        <time>2022-01-20T21:07:27Z</time>
      </trkpt>
      <trkpt lat="44.02898" lon="1.87055">
        <ele>279</ele>
        <time>2022-01-20T21:08:26Z</time>
      </trkpt>
      <trkpt lat="44.02881" lon="1.87069">
        <ele>278</ele>
        <time>2022-01-20T21:08:53Z</time>
      </trkpt>
      <trkpt lat="44.02865" lon="1.87083">
        <ele>277</ele>
        <time>2022-01-20T21:09:18Z</time>
      </trkpt>
      <trkpt lat="44.0279" lon="1.87134">
        <ele>272</ele>
        <time>2022-01-20T21:11:09Z</time>
      </trkpt>
      <trkpt lat="44.02743" lon="1.87159">
        <ele>268</ele>
        <time>2022-01-20T21:12:16Z</time>
      </trkpt>
      <trkpt lat="44.0272" lon="1.87171">
        <ele>266</ele>
        <time>2022-01-20T21:12:49Z</time>
      </trkpt>
      <trkpt lat="44.02701" lon="1.87172">
        <ele>263</ele>
        <time>2022-01-20T21:13:15Z</time>
      </trkpt>
      <trkpt lat="44.02673" lon="1.87188">
        <ele>260</ele>
        <time>2022-01-20T21:13:55Z</time>
      </trkpt>
      <trkpt lat="44.02661" lon="1.87205">
        <ele>259</ele>
        <time>2022-01-20T21:14:18Z</time>
      </trkpt>
      <trkpt lat="44.02642" lon="1.87209">
        <ele>256</ele>
        <time>2022-01-20T21:14:44Z</time>
      </trkpt>
      <trkpt lat="44.02594" lon="1.87221">
        <ele>250</ele>
        <time>2022-01-20T21:15:49Z</time>
      </trkpt>
      <trkpt lat="44.02574" lon="1.87218">
        <ele>247</ele>
        <time>2022-01-20T21:16:15Z</time>
      </trkpt>
      <trkpt lat="44.02457" lon="1.87254">
        <ele>233</ele>
        <time>2022-01-20T21:18:55Z</time>
      </trkpt>
      <trkpt lat="44.02446" lon="1.87263">
        <ele>233</ele>
        <time>2022-01-20T21:19:12Z</time>
      </trkpt>
      <trkpt lat="44.02435" lon="1.87289">
        <ele>233</ele>
        <time>2022-01-20T21:19:41Z</time>
      </trkpt>
      <trkpt lat="44.02421" lon="1.87299">
        <ele>232</ele>
        <time>2022-01-20T21:20:02Z</time>
      </trkpt>
      <trkpt lat="44.02398" lon="1.87321">
        <ele>234</ele>
        <time>2022-01-20T21:20:40Z</time>
      </trkpt>
      <trkpt lat="44.02386" lon="1.87341">
        <ele>236</ele>
        <time>2022-01-20T21:21:05Z</time>
      </trkpt>
      <trkpt lat="44.02383" lon="1.8736">
        <ele>237</ele>
        <time>2022-01-20T21:21:23Z</time>
      </trkpt>
      <trkpt lat="44.02364" lon="1.874">
        <ele>238</ele>
        <time>2022-01-20T21:22:09Z</time>
      </trkpt>
      <trkpt lat="44.0236" lon="1.87425">
        <ele>238</ele>
        <time>2022-01-20T21:22:34Z</time>
      </trkpt>
      <trkpt lat="44.0236" lon="1.87459">
        <ele>240</ele>
        <time>2022-01-20T21:23:06Z</time>
      </trkpt>
      <trkpt lat="44.02363" lon="1.87483">
        <ele>242</ele>
        <time>2022-01-20T21:23:30Z</time>
      </trkpt>
      <trkpt lat="44.02391" lon="1.87502">
        <ele>244</ele>
        <time>2022-01-20T21:24:11Z</time>
      </trkpt>
      <trkpt lat="44.02393" lon="1.87504">
        <ele>244</ele>
        <time>2022-01-20T21:24:15Z</time>
      </trkpt>
      <trkpt lat="44.02425" lon="1.87576">
        <ele>250</ele>
        <time>2022-01-20T21:25:36Z</time>
      </trkpt>
      <trkpt lat="44.02425" lon="1.87653">
        <ele>255</ele>
        <time>2022-01-20T21:26:50Z</time>
      </trkpt>
      <trkpt lat="44.0241" lon="1.87679">
        <ele>257</ele>
        <time>2022-01-20T21:27:22Z</time>
      </trkpt>
      <trkpt lat="44.02408" lon="1.87708">
        <ele>257</ele>
        <time>2022-01-20T21:27:50Z</time>
      </trkpt>
      <trkpt lat="44.02395" lon="1.87724">
        <ele>256</ele>
        <time>2022-01-20T21:28:13Z</time>
      </trkpt>
      <trkpt lat="44.02389" lon="1.87765">
        <ele>257</ele>
        <time>2022-01-20T21:28:53Z</time>
      </trkpt>
      <trkpt lat="44.02415" lon="1.8778">
        <ele>260</ele>
        <time>2022-01-20T21:29:31Z</time>
      </trkpt>
    </trkseg>
  </trk>
</gpx>